Time;durP1;ratioP1;P1;durP2;ratioP2;P2;SDS_P1;SDS_P2;PMS_P1;PMS_P2;Temp;Humidity;BMP_temperature;BMP_pressure;BME280_temperature;BME280_humidity;BME280_pressure;Samples;Min_cycle;Max_cycle;Signal;HPM_P1;HPM_P2
2021/05/11 16:52:12;;;;;;;5.38;1.75;;;;;;;23.40;40.87;98913.09;5049276;28;20350;-64
2021/05/11 16:54:38;;;;;;;6.07;2.10;;;;;;;23.38;40.92;98904.44;5049092;28;20029;-53
2021/05/11 16:57:04;;;;;;;4.35;1.85;;;;;;;23.36;42.95;98909.31;5048401;28;20027;-59
2021/05/11 16:59:29;;;;;;;7.20;1.83;;;;;;;23.44;41.12;98908.69;4951719;27;20057;-58
2021/05/11 17:01:54;;;;;;;5.70;1.95;;;;;;;23.44;41.25;98905.97;5064664;28;20040;-61
2021/05/11 17:04:20;;;;;;;2.95;1.67;;;;;;;23.41;41.33;98906.56;5089639;28;20027;-64
2021/05/11 17:06:45;;;;;;;9.70;2.00;;;;;;;23.40;41.52;98913.09;5090571;28;20024;-62
2021/05/11 17:09:11;;;;;;;5.78;1.92;;;;;;;23.33;41.65;98913.41;5089863;28;20032;-49
2021/05/11 17:11:37;;;;;;;4.32;1.80;;;;;;;23.30;41.47;98908.56;5090245;28;20021;-54
2021/05/11 17:14:03;;;;;;;5.53;2.40;;;;;;;23.24;41.54;98905.09;5089732;28;20028;-51
2021/05/11 17:16:29;;;;;;;7.35;2.10;;;;;;;23.25;41.72;98908.59;5090406;28;20031;-51
2021/05/11 17:18:54;;;;;;;7.25;2.30;;;;;;;23.23;41.61;98903.47;5090206;28;20036;-50
2021/05/11 17:21:20;;;;;;;5.55;3.15;;;;;;;23.25;41.38;98901.28;5088978;28;20032;-52
2021/05/11 17:23:45;;;;;;;6.68;2.00;;;;;;;23.24;41.80;98899.66;5089570;28;20030;-55
2021/05/11 17:26:11;;;;;;;6.53;2.00;;;;;;;23.27;42.87;98901.00;5104190;28;20385;-48
2021/05/11 17:28:39;;;;;;;6.93;2.35;;;;;;;23.31;42.58;98900.13;5087462;28;20453;-51
2021/05/11 17:31:04;;;;;;;6.13;2.80;;;;;;;23.33;42.34;98902.56;5088169;28;20520;-53
2021/05/11 17:33:30;;;;;;;5.95;2.67;;;;;;;23.34;43.51;98906.09;5088978;28;20063;-49
2021/05/11 17:35:55;;;;;;;7.15;2.95;;;;;;;23.31;43.44;98897.41;5087648;28;20020;-58
2021/05/11 17:38:23;;;;;;;5.43;2.83;;;;;;;23.25;42.91;98903.19;5086455;28;20581;-54
2021/05/11 17:40:49;;;;;;;6.10;2.60;;;;;;;23.20;43.26;98898.59;5088091;28;20392;-51
2021/05/11 17:43:15;;;;;;;5.43;2.40;;;;;;;23.17;43.66;98909.22;5086610;28;20028;-51
2021/05/11 17:45:40;;;;;;;7.15;3.00;;;;;;;23.14;43.89;98905.16;5081798;28;20101;-57
2021/05/11 17:48:06;;;;;;;7.28;2.80;;;;;;;23.28;44.87;98913.50;5042958;27;20048;-52
2021/05/11 17:50:32;;;;;;;6.68;4.00;;;;;;;23.56;44.76;98919.19;5080418;28;20048;-49
2021/05/11 17:52:58;;;;;;;10.70;8.55;;;;;;;23.57;44.32;98916.19;5067769;28;20021;-49
2021/05/11 17:55:23;;;;;;;9.18;7.55;;;;;;;23.62;43.78;98921.56;5066385;28;20017;-55
2021/05/11 17:57:49;;;;;;;15.35;6.28;;;;;;;23.99;44.08;98914.66;5082935;28;20024;-57
2021/05/11 18:00:16;;;;;;;6.40;5.80;;;;;;;25.87;45.74;98925.16;5067376;28;20051;-63
2021/05/11 18:02:41;;;;;;;11.63;5.25;;;;;;;25.39;42.09;98926.31;5058820;28;20028;-58
2021/05/11 18:17:11;;;;;;;5.95;4.10;;;;;;;24.54;44.77;98934.38;5079179;27;27338;-61
2021/05/11 18:21:17;;;;;;;7.33;4.10;;;;;;;24.37;44.33;98929.44;5088931;28;20499;-56
2021/05/11 18:25:55;;;;;;;10.90;4.00;;;;;;;25.20;44.95;98921.69;5184731;27;20337;-59
2021/05/11 18:28:20;;;;;;;7.95;3.10;;;;;;;24.51;41.71;98943.94;5183520;27;20611;-70
2021/05/11 18:30:46;;;;;;;6.40;3.00;;;;;;;23.79;41.95;98947.50;5147372;27;40662;-67
2021/05/11 18:33:13;;;;;;;7.13;2.80;;;;;;;23.34;42.34;98946.84;5130923;27;33218;-72
2021/05/11 18:35:38;;;;;;;4.85;2.90;;;;;;;23.09;42.87;98943.22;5135349;27;20031;-67
2021/05/11 18:38:06;;;;;;;6.93;3.00;;;;;;;23.01;42.63;98950.06;5131698;27;20043;-66
2021/05/11 18:40:32;;;;;;;7.97;3.90;;;;;;;22.88;42.64;98947.97;5130065;27;20422;-67
2021/05/11 18:42:57;;;;;;;8.05;3.90;;;;;;;22.76;42.54;98949.16;5110335;27;20040;-69
2021/05/11 18:45:23;;;;;;;6.63;4.22;;;;;;;22.69;42.33;98955.97;5127809;27;20384;-70
2021/05/11 18:47:58;;;;;;;5.32;3.35;;;;;;;22.69;42.15;98956.81;5111974;27;20039;-69
2021/05/11 18:50:24;;;;;;;5.38;2.67;;;;;;;22.68;41.78;98954.34;5112252;27;20028;-69
2021/05/11 18:52:50;;;;;;;4.90;2.47;;;;;;;22.69;41.09;98948.66;5108630;28;20119;-70
2021/05/11 18:55:15;;;;;;;6.13;2.45;;;;;;;22.66;41.37;98957.34;5110679;27;20522;-70
2021/05/11 18:57:42;;;;;;;3.55;2.55;;;;;;;22.67;41.05;98950.03;5110029;28;30410;-70
2021/05/11 19:00:08;;;;;;;6.07;3.00;;;;;;;22.65;40.82;98961.97;5110421;28;20035;-69
2021/05/11 19:02:33;;;;;;;7.05;2.90;;;;;;;22.62;40.36;98956.28;5107676;27;20032;-68
2021/05/11 19:04:59;;;;;;;5.40;2.65;;;;;;;22.58;40.58;98972.34;5106040;28;20052;-71
2021/05/11 19:07:24;;;;;;;4.88;3.15;;;;;;;22.48;40.41;98956.09;5110482;28;20397;-69
2021/05/11 19:09:50;;;;;;;4.82;2.40;;;;;;;22.47;40.50;98951.75;5107790;28;40455;-70
2021/05/11 19:12:16;;;;;;;5.72;3.78;;;;;;;22.52;40.43;98959.88;5110161;28;20028;-71
2021/05/11 19:14:41;;;;;;;5.72;2.65;;;;;;;22.46;40.43;98961.78;5110142;28;20090;-71
2021/05/11 19:17:06;;;;;;;6.53;3.15;;;;;;;22.44;40.40;98963.16;5109460;27;27287;-71
2021/05/11 19:19:32;;;;;;;3.47;2.60;;;;;;;22.41;40.33;98963.72;5110372;28;20024;-71
2021/05/11 19:21:57;;;;;;;8.23;2.97;;;;;;;22.35;40.31;98967.53;5110307;27;20037;-70
2021/05/11 19:24:23;;;;;;;4.72;2.83;;;;;;;22.34;40.33;98966.75;5110132;27;20059;-71
2021/05/11 19:26:48;;;;;;;4.30;2.88;;;;;;;22.30;40.37;98971.88;5109436;28;27893;-71
2021/05/11 19:29:13;;;;;;;4.43;2.60;;;;;;;22.23;40.38;98974.06;5109661;28;20475;-70
2021/05/11 19:31:40;;;;;;;10.80;2.63;;;;;;;22.17;40.32;98975.19;5109944;27;20033;-69
2021/05/11 19:34:08;;;;;;;4.70;2.95;;;;;;;22.11;40.33;98970.88;5108841;28;20048;-72
2021/05/11 19:36:36;;;;;;;7.53;2.85;;;;;;;22.02;40.42;98970.63;5100523;27;20025;-70
2021/05/11 19:39:05;;;;;;;5.63;2.83;;;;;;;22.01;40.61;98979.84;5096128;28;20102;-71
2021/05/11 19:41:31;;;;;;;4.13;2.70;;;;;;;21.94;40.55;98982.84;5094713;28;20056;-71
2021/05/11 19:43:56;;;;;;;5.50;2.72;;;;;;;21.92;40.47;98976.88;5095889;28;20267;-69
2021/05/11 19:46:23;;;;;;;4.10;2.72;;;;;;;21.86;40.61;98977.19;5094279;28;24001;-70
2021/05/11 19:48:49;;;;;;;4.75;2.78;;;;;;;21.78;40.58;98975.84;5096142;28;20119;-70
2021/05/11 19:51:14;;;;;;;6.50;3.20;;;;;;;21.73;40.99;98965.00;5093197;28;39840;-70
2021/05/11 19:53:40;;;;;;;4.22;2.65;;;;;;;21.69;41.03;98970.13;5095914;28;20028;-71
2021/05/11 19:56:05;;;;;;;7.22;3.08;;;;;;;21.69;40.92;98969.34;5084629;28;20025;-70
2021/05/11 19:58:31;;;;;;;5.43;3.10;;;;;;;21.66;41.09;98969.91;5080379;28;20385;-70
2021/05/11 20:00:56;;;;;;;4.90;3.15;;;;;;;21.68;41.17;98967.72;5077153;28;20055;-70
2021/05/11 20:03:22;;;;;;;5.68;2.85;;;;;;;21.62;41.22;98969.63;5077111;28;20433;-70
2021/05/11 20:05:48;;;;;;;4.82;2.95;;;;;;;21.62;41.33;98975.88;5077250;28;20039;-70
2021/05/11 20:08:13;;;;;;;6.20;2.65;;;;;;;21.57;41.16;98973.16;5073785;28;20547;-70
2021/05/11 20:10:39;;;;;;;4.80;3.08;;;;;;;21.58;41.40;98972.09;5088715;28;30915;-71
2021/05/11 20:13:04;;;;;;;6.20;3.20;;;;;;;21.53;41.35;98972.06;5110288;28;41802;-70
2021/05/11 20:15:30;;;;;;;7.82;3.17;;;;;;;21.53;41.63;98965.81;5095556;28;20074;-70
2021/05/11 20:17:56;;;;;;;8.98;3.40;;;;;;;21.43;41.48;98966.63;5095695;28;20024;-71
2021/05/11 20:20:23;;;;;;;7.00;3.42;;;;;;;21.32;41.58;98965.00;5095599;28;20024;-69
2021/05/11 20:22:49;;;;;;;8.77;2.90;;;;;;;21.25;41.92;98959.88;5095125;28;20107;-71
2021/05/11 20:25:14;;;;;;;5.85;2.70;;;;;;;21.21;41.90;98956.88;5095318;28;20059;-71
2021/05/11 20:27:40;;;;;;;5.25;3.10;;;;;;;21.19;42.00;98956.34;5095396;28;20424;-71
2021/05/11 20:30:05;;;;;;;6.65;3.00;;;;;;;21.16;42.18;98962.31;5095572;28;20025;-71
2021/05/11 20:32:31;;;;;;;7.88;2.83;;;;;;;21.15;42.16;98957.16;5093825;28;20051;-72
2021/05/11 20:35:04;;;;;;;5.78;2.92;;;;;;;21.13;42.31;98954.72;5082887;28;33600;-69
2021/05/11 20:37:30;;;;;;;6.72;3.10;;;;;;;21.10;42.26;98955.25;5079491;28;20871;-69
2021/05/11 20:39:55;;;;;;;6.70;3.05;;;;;;;21.04;42.24;98951.72;5075460;28;20044;-70
2021/05/11 20:42:21;;;;;;;4.82;3.10;;;;;;;21.01;42.32;98949.56;5075701;28;38257;-70
2021/05/11 20:44:46;;;;;;;4.80;2.90;;;;;;;20.99;42.40;98950.91;5079034;28;20036;-69
2021/05/11 20:47:12;;;;;;;3.35;2.63;;;;;;;20.97;42.60;98959.31;5093885;28;30676;-70
2021/05/11 20:49:37;;;;;;;5.07;3.10;;;;;;;20.96;42.74;98955.78;5094894;28;20039;-70
2021/05/11 20:52:03;;;;;;;5.90;2.80;;;;;;;20.96;42.62;98958.47;5092593;28;36854;-72
2021/05/11 20:54:28;;;;;;;4.75;2.97;;;;;;;20.89;42.52;98951.72;5094420;28;20047;-71
2021/05/11 20:56:54;;;;;;;9.05;3.00;;;;;;;20.91;42.76;98961.22;5095801;28;27443;-73
2021/05/11 20:59:19;;;;;;;5.45;2.80;;;;;;;20.86;42.74;98958.50;5095397;28;29960;-74
2021/05/11 21:01:45;;;;;;;5.45;2.90;;;;;;;20.95;42.74;98961.47;5096264;28;20032;-69
2021/05/11 21:04:10;;;;;;;8.55;2.90;;;;;;;20.94;42.60;98949.84;5095011;28;20044;-71
2021/05/11 21:06:36;;;;;;;3.17;2.67;;;;;;;20.92;42.87;98945.78;5095947;28;20023;-71
2021/05/11 21:09:01;;;;;;;9.77;3.95;;;;;;;20.87;42.65;98949.28;5095401;28;36069;-71
2021/05/11 21:11:26;;;;;;;6.90;3.00;;;;;;;20.83;42.75;98953.63;5095876;28;20040;-73
2021/05/11 21:13:52;;;;;;;3.75;2.80;;;;;;;20.82;42.76;98946.56;5095246;28;20465;-70
2021/05/11 21:16:17;;;;;;;5.65;2.90;;;;;;;20.81;42.74;98944.94;5093795;28;37923;-69
2021/05/11 21:18:42;;;;;;;5.05;3.00;;;;;;;20.78;42.67;98948.19;5095686;28;28863;-68
2021/05/11 21:21:09;;;;;;;7.10;3.25;;;;;;;20.78;42.66;98942.78;5094418;28;20039;-67
2021/05/11 21:23:34;;;;;;;5.63;2.90;;;;;;;20.75;42.73;98941.41;5093064;28;20060;-68
2021/05/11 21:26:00;;;;;;;4.30;2.90;;;;;;;20.68;42.91;98942.72;5090760;28;20103;-68
2021/05/11 21:28:25;;;;;;;4.95;3.40;;;;;;;20.63;42.65;98938.91;5093855;28;35422;-69
2021/05/11 21:30:50;;;;;;;7.53;3.30;;;;;;;20.59;42.89;98931.63;5076188;28;20086;-67
2021/05/11 21:33:16;;;;;;;7.07;3.33;;;;;;;20.55;42.92;98936.72;5095147;28;37411;-67
2021/05/11 21:35:41;;;;;;;5.43;3.45;;;;;;;20.57;43.10;98934.59;5095846;28;20051;-68
2021/05/11 21:38:07;;;;;;;8.30;2.88;;;;;;;20.60;43.06;98933.25;5095964;28;20028;-68
2021/05/11 21:40:32;;;;;;;3.95;2.53;;;;;;;20.60;43.00;98931.34;5094181;28;31585;-68
2021/05/11 21:42:57;;;;;;;6.78;3.03;;;;;;;20.59;43.21;98927.00;5095562;28;20538;-67
2021/05/11 21:45:23;;;;;;;4.65;2.47;;;;;;;20.57;43.03;98925.63;5095762;28;20025;-67
2021/05/11 21:47:48;;;;;;;6.88;2.70;;;;;;;20.58;43.16;98922.66;5095175;28;20039;-67
2021/05/11 21:50:15;;;;;;;6.63;2.88;;;;;;;20.57;42.97;98933.75;5095356;27;20884;-67
2021/05/11 21:52:40;;;;;;;6.35;2.78;;;;;;;20.60;43.26;98922.44;5095743;28;20033;-69
2021/05/11 21:55:06;;;;;;;6.35;3.00;;;;;;;20.57;43.10;98926.47;5095668;28;20028;-68
2021/05/11 21:57:32;;;;;;;8.88;2.85;;;;;;;20.55;43.08;98925.91;5095311;28;20120;-68
2021/05/11 21:59:57;;;;;;;3.80;2.55;;;;;;;20.52;43.10;98922.94;5092093;27;39271;-70
2021/05/11 22:02:22;;;;;;;4.47;2.58;;;;;;;20.50;43.32;98917.78;5092513;27;20047;-68
2021/05/11 22:04:48;;;;;;;4.68;2.60;;;;;;;20.52;43.36;98921.03;5095685;28;20036;-69
2021/05/11 22:07:14;;;;;;;6.70;3.03;;;;;;;20.45;43.13;98909.66;5082654;28;31101;-68
2021/05/11 22:09:39;;;;;;;4.80;2.70;;;;;;;20.43;43.17;98918.03;5073471;28;33348;-68
2021/05/11 22:12:05;;;;;;;4.63;3.00;;;;;;;20.37;43.15;98919.09;5075103;28;20029;-66
2021/05/11 22:14:30;;;;;;;4.35;2.63;;;;;;;20.37;43.26;98923.72;5074977;28;20477;-67
2021/05/11 22:16:56;;;;;;;4.82;2.47;;;;;;;20.32;43.37;98910.16;5074441;28;35527;-67
2021/05/11 22:19:21;;;;;;;4.78;2.65;;;;;;;20.26;43.25;98914.75;5090370;28;20576;-68
2021/05/11 22:21:46;;;;;;;4.85;3.00;;;;;;;20.25;43.37;98916.63;5090471;28;20029;-67
2021/05/11 22:24:12;;;;;;;7.25;4.13;;;;;;;20.24;43.35;98916.91;5073925;28;30891;-68
2021/05/11 22:26:37;;;;;;;7.28;3.50;;;;;;;20.16;43.38;98920.09;5073522;28;20029;-68
2021/05/11 22:29:03;;;;;;;6.80;3.50;;;;;;;20.09;43.50;98914.94;5074328;28;28420;-68
2021/05/11 22:31:30;;;;;;;6.85;3.33;;;;;;;20.06;43.48;98912.78;5075217;28;20025;-68
2021/05/11 22:33:56;;;;;;;4.60;2.90;;;;;;;20.07;43.77;98917.13;5073533;28;20061;-69
2021/05/11 22:36:21;;;;;;;8.60;3.45;;;;;;;20.04;43.70;98909.50;5074945;28;20033;-69
2021/05/11 22:38:46;;;;;;;5.40;3.30;;;;;;;20.00;43.76;98914.66;5073110;28;31317;-68
2021/05/11 22:41:12;;;;;;;5.78;2.90;;;;;;;19.97;43.88;98904.38;5073931;28;38388;-68
2021/05/11 22:43:40;;;;;;;4.20;2.72;;;;;;;19.94;43.85;98905.72;5073042;28;30472;-67
2021/05/11 22:46:06;;;;;;;4.10;2.58;;;;;;;19.87;43.83;98909.72;5082332;28;20039;-67
2021/05/11 22:48:31;;;;;;;5.07;2.88;;;;;;;19.86;44.01;98906.22;5094969;28;20028;-68
2021/05/11 22:50:57;;;;;;;6.70;3.08;;;;;;;19.80;44.05;98912.66;5093640;28;20032;-68
2021/05/11 22:53:23;;;;;;;4.60;2.80;;;;;;;19.76;44.36;98909.63;5094658;28;34939;-68
2021/05/11 22:55:53;;;;;;;8.30;3.70;;;;;;;19.71;44.41;98903.38;5094074;28;20482;-67
2021/05/11 22:58:18;;;;;;;7.07;3.17;;;;;;;19.67;44.35;98910.38;5095470;28;20499;-70
2021/05/11 23:00:44;;;;;;;3.92;2.35;;;;;;;19.67;44.48;98904.97;5095366;28;20033;-67
2021/05/11 23:03:10;;;;;;;4.70;3.05;;;;;;;19.60;44.69;98906.03;5092932;28;20086;-69
2021/05/11 23:05:35;;;;;;;6.40;3.17;;;;;;;19.54;44.74;98911.66;5091887;28;20044;-67
2021/05/11 23:08:00;;;;;;;9.70;2.92;;;;;;;19.50;44.88;98895.16;5093119;28;20024;-69
2021/05/11 23:10:26;;;;;;;5.78;2.75;;;;;;;19.44;45.18;98896.22;5094507;28;20025;-68
2021/05/11 23:12:52;;;;;;;5.68;3.05;;;;;;;19.39;44.92;98901.59;5096845;28;20453;-68
2021/05/11 23:15:22;;;;;;;4.65;3.15;;;;;;;19.33;45.20;98886.41;5096267;27;20060;-69
2021/05/11 23:17:52;;;;;;;6.18;3.13;;;;;;;19.31;45.50;98891.25;5095793;28;20024;-68
2021/05/11 23:20:21;;;;;;;5.10;3.38;;;;;;;19.31;45.31;98891.25;5080594;28;20086;-68
2021/05/11 23:22:47;;;;;;;6.10;3.10;;;;;;;19.25;45.48;98885.81;5096824;28;20035;-68
2021/05/11 23:25:12;;;;;;;5.93;3.05;;;;;;;19.24;45.82;98889.59;5097859;28;20056;-68
2021/05/11 23:27:39;;;;;;;5.60;2.80;;;;;;;19.24;45.73;98892.28;5097831;28;20027;-68
2021/05/11 23:30:05;;;;;;;4.63;3.17;;;;;;;19.21;45.78;98892.00;5098213;28;20191;-68
2021/05/11 23:32:30;;;;;;;4.90;2.83;;;;;;;19.18;45.93;98892.53;5096589;28;20036;-68
2021/05/11 23:34:56;;;;;;;5.70;3.53;;;;;;;19.16;46.12;98884.66;5096861;28;38764;-68
2021/05/11 23:37:21;;;;;;;6.93;3.33;;;;;;;19.13;46.16;98887.91;5096248;28;27997;-69
2021/05/11 23:39:46;;;;;;;5.45;3.20;;;;;;;19.09;46.28;98876.78;5098041;28;20025;-69
2021/05/11 23:42:12;;;;;;;5.38;2.97;;;;;;;19.09;46.52;98867.88;5097039;28;39733;-69
2021/05/11 23:44:37;;;;;;;5.70;2.80;;;;;;;19.07;46.68;98875.44;5097502;28;20056;-69
2021/05/11 23:47:03;;;;;;;8.27;3.17;;;;;;;19.10;46.54;98872.22;5097374;28;20912;-69
2021/05/11 23:49:28;;;;;;;9.18;3.30;;;;;;;19.02;46.64;98873.50;5096886;28;28678;-69
2021/05/11 23:51:53;;;;;;;6.72;3.20;;;;;;;18.99;46.74;98875.94;5096928;28;34588;-69
2021/05/11 23:54:19;;;;;;;4.22;2.70;;;;;;;18.98;46.75;98885.09;5097629;28;20029;-68
2021/05/11 23:56:44;;;;;;;3.95;2.97;;;;;;;18.93;46.95;98883.97;5097050;28;35475;-68
2021/05/11 23:59:10;;;;;;;5.78;2.83;;;;;;;18.97;46.84;98883.44;5097408;28;20024;-67
